sensor_id;sensor_type;location;lat;lon;timestamp;P1;durP1;ratioP1;P2;durP2;ratioP2
36789;SDS011;22740;52.182;8.780;2023-04-16T00:01:19;47.20;;;31.10;;
36789;SDS011;22740;52.182;8.780;2023-04-16T00:07:41;48.80;;;31.10;;
36789;SDS011;22740;52.182;8.780;2023-04-16T00:13:49;50.80;;;32.70;;
36789;SDS011;22740;52.182;8.780;2023-04-16T00:19:57;50.40;;;33.35;;
36789;SDS011;22740;52.182;8.780;2023-04-16T00:26:05;50.38;;;32.75;;
36789;SDS011;22740;52.182;8.780;2023-04-16T00:32:13;47.47;;;33.50;;
36789;SDS011;22740;52.182;8.780;2023-04-16T00:38:29;47.85;;;32.15;;
36789;SDS011;22740;52.182;8.780;2023-04-16T00:44:39;47.83;;;32.90;;
36789;SDS011;22740;52.182;8.780;2023-04-16T00:50:47;50.63;;;32.95;;
36789;SDS011;22740;52.182;8.780;2023-04-16T00:56:55;45.58;;;32.03;;
36789;SDS011;22740;52.182;8.780;2023-04-16T01:03:12;42.08;;;30.85;;
36789;SDS011;22740;52.182;8.780;2023-04-16T01:09:20;45.30;;;31.27;;
36789;SDS011;22740;52.182;8.780;2023-04-16T01:15:29;42.55;;;30.30;;
36789;SDS011;22740;52.182;8.780;2023-04-16T01:21:37;47.78;;;31.60;;
36789;SDS011;22740;52.182;8.780;2023-04-16T01:27:53;42.03;;;29.80;;
36789;SDS011;22740;52.182;8.780;2023-04-16T01:34:16;41.22;;;29.92;;
36789;SDS011;22740;52.182;8.780;2023-04-16T01:40:25;42.47;;;28.75;;
36789;SDS011;22740;52.182;8.780;2023-04-16T01:46:33;37.38;;;25.92;;
36789;SDS011;22740;52.182;8.780;2023-04-16T01:52:43;42.95;;;27.25;;
36789;SDS011;22740;52.182;8.780;2023-04-16T01:58:52;36.03;;;26.90;;
36789;SDS011;22740;52.182;8.780;2023-04-16T02:05:00;36.92;;;25.65;;
36789;SDS011;22740;52.182;8.780;2023-04-16T02:11:16;35.70;;;25.73;;
36789;SDS011;22740;52.182;8.780;2023-04-16T02:17:25;35.20;;;24.13;;
36789;SDS011;22740;52.182;8.780;2023-04-16T02:23:33;36.30;;;25.67;;
36789;SDS011;22740;52.182;8.780;2023-04-16T02:29:41;33.42;;;23.20;;
36789;SDS011;22740;52.182;8.780;2023-04-16T02:35:49;34.97;;;23.50;;
36789;SDS011;22740;52.182;8.780;2023-04-16T02:41:58;31.45;;;22.42;;
36789;SDS011;22740;52.182;8.780;2023-04-16T02:48:08;30.92;;;23.23;;
36789;SDS011;22740;52.182;8.780;2023-04-16T02:54:16;37.65;;;22.23;;
36789;SDS011;22740;52.182;8.780;2023-04-16T03:00:24;35.58;;;22.63;;
36789;SDS011;22740;52.182;8.780;2023-04-16T03:06:32;31.63;;;20.90;;
36789;SDS011;22740;52.182;8.780;2023-04-16T03:12:40;32.67;;;20.50;;
36789;SDS011;22740;52.182;8.780;2023-04-16T03:18:48;29.50;;;20.65;;
36789;SDS011;22740;52.182;8.780;2023-04-16T03:24:56;32.35;;;19.48;;
36789;SDS011;22740;52.182;8.780;2023-04-16T03:31:04;30.70;;;20.90;;
36789;SDS011;22740;52.182;8.780;2023-04-16T03:37:12;34.05;;;22.52;;
36789;SDS011;22740;52.182;8.780;2023-04-16T03:43:20;28.73;;;21.95;;
36789;SDS011;22740;52.182;8.780;2023-04-16T03:49:28;35.83;;;23.58;;
36789;SDS011;22740;52.182;8.780;2023-04-16T03:55:36;33.10;;;23.73;;
36789;SDS011;22740;52.182;8.780;2023-04-16T04:01:51;38.05;;;24.23;;
36789;SDS011;22740;52.182;8.780;2023-04-16T04:07:59;37.35;;;24.77;;
36789;SDS011;22740;52.182;8.780;2023-04-16T04:14:17;35.63;;;25.10;;
36789;SDS011;22740;52.182;8.780;2023-04-16T04:20:25;34.30;;;23.92;;
36789;SDS011;22740;52.182;8.780;2023-04-16T04:26:34;35.70;;;23.27;;
36789;SDS011;22740;52.182;8.780;2023-04-16T04:32:42;34.10;;;22.42;;
36789;SDS011;22740;52.182;8.780;2023-04-16T04:38:50;39.50;;;24.50;;
36789;SDS011;22740;52.182;8.780;2023-04-16T04:44:58;34.15;;;23.50;;
36789;SDS011;22740;52.182;8.780;2023-04-16T04:51:06;34.00;;;23.48;;
36789;SDS011;22740;52.182;8.780;2023-04-16T04:57:14;37.72;;;23.17;;
36789;SDS011;22740;52.182;8.780;2023-04-16T05:03:29;36.83;;;24.20;;
36789;SDS011;22740;52.182;8.780;2023-04-16T05:09:38;36.45;;;24.27;;
36789;SDS011;22740;52.182;8.780;2023-04-16T05:15:47;36.38;;;23.02;;
36789;SDS011;22740;52.182;8.780;2023-04-16T05:21:55;38.20;;;25.15;;
36789;SDS011;22740;52.182;8.780;2023-04-16T05:28:03;39.95;;;24.65;;
36789;SDS011;22740;52.182;8.780;2023-04-16T05:34:11;38.72;;;24.85;;
36789;SDS011;22740;52.182;8.780;2023-04-16T05:40:19;39.38;;;26.20;;
36789;SDS011;22740;52.182;8.780;2023-04-16T05:46:27;38.25;;;25.88;;
36789;SDS011;22740;52.182;8.780;2023-04-16T05:52:35;37.97;;;25.45;;
36789;SDS011;22740;52.182;8.780;2023-04-16T05:58:43;33.83;;;22.63;;
36789;SDS011;22740;52.182;8.780;2023-04-16T06:04:51;38.22;;;23.25;;
36789;SDS011;22740;52.182;8.780;2023-04-16T06:11:06;37.70;;;22.92;;
36789;SDS011;22740;52.182;8.780;2023-04-16T06:17:14;34.30;;;22.40;;
36789;SDS011;22740;52.182;8.780;2023-04-16T06:23:26;38.00;;;23.15;;
36789;SDS011;22740;52.182;8.780;2023-04-16T06:29:34;34.17;;;22.48;;
36789;SDS011;22740;52.182;8.780;2023-04-16T06:35:42;39.92;;;24.92;;
36789;SDS011;22740;52.182;8.780;2023-04-16T06:41:50;39.72;;;23.70;;
36789;SDS011;22740;52.182;8.780;2023-04-16T06:47:58;34.85;;;23.92;;
36789;SDS011;22740;52.182;8.780;2023-04-16T06:54:06;36.45;;;23.98;;
36789;SDS011;22740;52.182;8.780;2023-04-16T07:00:14;34.53;;;24.52;;
36789;SDS011;22740;52.182;8.780;2023-04-16T07:06:29;36.03;;;23.70;;
36789;SDS011;22740;52.182;8.780;2023-04-16T07:12:38;33.03;;;23.25;;
36789;SDS011;22740;52.182;8.780;2023-04-16T07:18:47;37.35;;;24.63;;
36789;SDS011;22740;52.182;8.780;2023-04-16T07:24:55;35.75;;;25.15;;
36789;SDS011;22740;52.182;8.780;2023-04-16T07:31:03;33.42;;;23.55;;
36789;SDS011;22740;52.182;8.780;2023-04-16T07:37:12;38.85;;;24.13;;
36789;SDS011;22740;52.182;8.780;2023-04-16T07:43:20;32.40;;;22.05;;
36789;SDS011;22740;52.182;8.780;2023-04-16T07:49:28;33.28;;;22.40;;
36789;SDS011;22740;52.182;8.780;2023-04-16T07:55:37;32.35;;;22.38;;
36789;SDS011;22740;52.182;8.780;2023-04-16T08:01:45;33.58;;;22.27;;
36789;SDS011;22740;52.182;8.780;2023-04-16T08:07:54;33.63;;;22.00;;
36789;SDS011;22740;52.182;8.780;2023-04-16T08:14:03;31.90;;;20.50;;
36789;SDS011;22740;52.182;8.780;2023-04-16T08:20:11;28.27;;;19.60;;
36789;SDS011;22740;52.182;8.780;2023-04-16T08:26:19;31.67;;;20.80;;
36789;SDS011;22740;52.182;8.780;2023-04-16T08:32:28;27.55;;;19.50;;
36789;SDS011;22740;52.182;8.780;2023-04-16T08:38:37;31.13;;;20.70;;
36789;SDS011;22740;52.182;8.780;2023-04-16T08:44:46;32.80;;;20.25;;
36789;SDS011;22740;52.182;8.780;2023-04-16T08:50:56;28.67;;;20.17;;
36789;SDS011;22740;52.182;8.780;2023-04-16T08:57:09;29.92;;;18.35;;
36789;SDS011;22740;52.182;8.780;2023-04-16T09:03:18;30.63;;;19.58;;
36789;SDS011;22740;52.182;8.780;2023-04-16T09:09:37;27.67;;;18.52;;
36789;SDS011;22740;52.182;8.780;2023-04-16T09:15:46;26.20;;;18.98;;
36789;SDS011;22740;52.182;8.780;2023-04-16T09:21:57;29.27;;;18.80;;
36789;SDS011;22740;52.182;8.780;2023-04-16T09:28:06;27.55;;;18.38;;
36789;SDS011;22740;52.182;8.780;2023-04-16T09:34:21;27.92;;;17.65;;
36789;SDS011;22740;52.182;8.780;2023-04-16T09:40:29;25.48;;;17.48;;
36789;SDS011;22740;52.182;8.780;2023-04-16T09:46:41;24.90;;;16.10;;
36789;SDS011;22740;52.182;8.780;2023-04-16T09:52:50;25.33;;;17.13;;
36789;SDS011;22740;52.182;8.780;2023-04-16T09:59:01;24.85;;;16.90;;
36789;SDS011;22740;52.182;8.780;2023-04-16T10:05:10;23.73;;;16.17;;
36789;SDS011;22740;52.182;8.780;2023-04-16T10:11:28;25.75;;;17.35;;
36789;SDS011;22740;52.182;8.780;2023-04-16T10:17:37;29.20;;;17.20;;
36789;SDS011;22740;52.182;8.780;2023-04-16T10:23:46;26.45;;;17.35;;
36789;SDS011;22740;52.182;8.780;2023-04-16T10:30:01;26.42;;;16.30;;
36789;SDS011;22740;52.182;8.780;2023-04-16T10:42:22;26.80;;;17.70;;
36789;SDS011;22740;52.182;8.780;2023-04-16T10:48:30;25.98;;;16.77;;
36789;SDS011;22740;52.182;8.780;2023-04-16T10:54:50;30.42;;;16.73;;
36789;SDS011;22740;52.182;8.780;2023-04-16T11:00:53;30.17;;;17.23;;
36789;SDS011;22740;52.182;8.780;2023-04-16T11:06:59;30.95;;;16.08;;
36789;SDS011;22740;52.182;8.780;2023-04-16T11:13:02;30.98;;;19.08;;
36789;SDS011;22740;52.182;8.780;2023-04-16T11:19:07;28.25;;;16.73;;
36789;SDS011;22740;52.182;8.780;2023-04-16T11:25:34;28.15;;;17.20;;
36789;SDS011;22740;52.182;8.780;2023-04-16T11:31:37;28.10;;;16.27;;
36789;SDS011;22740;52.182;8.780;2023-04-16T11:37:40;29.85;;;17.75;;
36789;SDS011;22740;52.182;8.780;2023-04-16T11:43:42;26.85;;;16.30;;
36789;SDS011;22740;52.182;8.780;2023-04-16T11:49:45;26.27;;;16.15;;
36789;SDS011;22740;52.182;8.780;2023-04-16T11:55:47;28.13;;;15.98;;
36789;SDS011;22740;52.182;8.780;2023-04-16T12:01:49;29.73;;;16.20;;
36789;SDS011;22740;52.182;8.780;2023-04-16T12:07:53;25.27;;;16.25;;
36789;SDS011;22740;52.182;8.780;2023-04-16T12:20:11;24.20;;;15.73;;
36789;SDS011;22740;52.182;8.780;2023-04-16T12:26:15;25.67;;;15.77;;
36789;SDS011;22740;52.182;8.780;2023-04-16T12:32:21;28.92;;;15.52;;
36789;SDS011;22740;52.182;8.780;2023-04-16T12:38:23;23.80;;;15.43;;
36789;SDS011;22740;52.182;8.780;2023-04-16T12:44:27;27.57;;;15.43;;
36789;SDS011;22740;52.182;8.780;2023-04-16T12:50:29;23.67;;;14.90;;
36789;SDS011;22740;52.182;8.780;2023-04-16T12:56:32;25.23;;;15.23;;
36789;SDS011;22740;52.182;8.780;2023-04-16T13:02:34;19.90;;;12.90;;
36789;SDS011;22740;52.182;8.780;2023-04-16T13:08:36;24.33;;;15.15;;
36789;SDS011;22740;52.182;8.780;2023-04-16T13:14:38;27.50;;;14.88;;
36789;SDS011;22740;52.182;8.780;2023-04-16T13:20:41;22.25;;;13.90;;
36789;SDS011;22740;52.182;8.780;2023-04-16T13:26:43;22.85;;;14.57;;
36789;SDS011;22740;52.182;8.780;2023-04-16T13:32:45;23.40;;;14.18;;
36789;SDS011;22740;52.182;8.780;2023-04-16T13:38:47;25.00;;;14.57;;
36789;SDS011;22740;52.182;8.780;2023-04-16T13:44:49;22.17;;;14.55;;
36789;SDS011;22740;52.182;8.780;2023-04-16T13:50:54;19.15;;;14.20;;
36789;SDS011;22740;52.182;8.780;2023-04-16T13:56:56;23.17;;;13.52;;
36789;SDS011;22740;52.182;8.780;2023-04-16T14:02:58;25.98;;;14.50;;
36789;SDS011;22740;52.182;8.780;2023-04-16T14:09:00;24.73;;;14.20;;
36789;SDS011;22740;52.182;8.780;2023-04-16T14:15:04;21.80;;;13.82;;
36789;SDS011;22740;52.182;8.780;2023-04-16T14:21:07;22.45;;;14.38;;
36789;SDS011;22740;52.182;8.780;2023-04-16T14:27:09;21.95;;;14.65;;
36789;SDS011;22740;52.182;8.780;2023-04-16T14:33:11;20.10;;;13.88;;
36789;SDS011;22740;52.182;8.780;2023-04-16T14:39:13;20.30;;;14.13;;
36789;SDS011;22740;52.182;8.780;2023-04-16T14:45:16;20.25;;;13.95;;
36789;SDS011;22740;52.182;8.780;2023-04-16T14:51:18;19.35;;;12.82;;
36789;SDS011;22740;52.182;8.780;2023-04-16T14:57:20;21.38;;;14.32;;
36789;SDS011;22740;52.182;8.780;2023-04-16T15:03:23;20.90;;;14.20;;
36789;SDS011;22740;52.182;8.780;2023-04-16T15:09:25;22.83;;;14.07;;
36789;SDS011;22740;52.182;8.780;2023-04-16T15:15:27;18.52;;;12.93;;
36789;SDS011;22740;52.182;8.780;2023-04-16T15:21:29;21.73;;;14.07;;
36789;SDS011;22740;52.182;8.780;2023-04-16T15:27:32;20.98;;;13.95;;
36789;SDS011;22740;52.182;8.780;2023-04-16T15:33:33;19.42;;;13.55;;
36789;SDS011;22740;52.182;8.780;2023-04-16T15:39:35;19.27;;;13.23;;
36789;SDS011;22740;52.182;8.780;2023-04-16T15:45:37;20.52;;;13.07;;
36789;SDS011;22740;52.182;8.780;2023-04-16T15:51:39;19.50;;;13.60;;
36789;SDS011;22740;52.182;8.780;2023-04-16T15:57:41;19.75;;;13.57;;
36789;SDS011;22740;52.182;8.780;2023-04-16T16:03:43;19.70;;;12.88;;
36789;SDS011;22740;52.182;8.780;2023-04-16T16:09:45;19.25;;;13.43;;
36789;SDS011;22740;52.182;8.780;2023-04-16T16:15:48;20.83;;;12.57;;
36789;SDS011;22740;52.182;8.780;2023-04-16T16:21:51;19.92;;;12.98;;
36789;SDS011;22740;52.182;8.780;2023-04-16T16:27:52;20.83;;;14.30;;
36789;SDS011;22740;52.182;8.780;2023-04-16T16:33:54;19.40;;;13.48;;
36789;SDS011;22740;52.182;8.780;2023-04-16T16:39:56;20.40;;;13.55;;
36789;SDS011;22740;52.182;8.780;2023-04-16T16:45:58;20.95;;;13.88;;
36789;SDS011;22740;52.182;8.780;2023-04-16T16:52:00;20.10;;;13.95;;
36789;SDS011;22740;52.182;8.780;2023-04-16T16:58:02;19.83;;;13.98;;
36789;SDS011;22740;52.182;8.780;2023-04-16T17:04:04;19.33;;;14.20;;
36789;SDS011;22740;52.182;8.780;2023-04-16T17:10:06;20.23;;;13.98;;
36789;SDS011;22740;52.182;8.780;2023-04-16T17:16:11;18.08;;;13.02;;
36789;SDS011;22740;52.182;8.780;2023-04-16T17:22:15;20.02;;;13.88;;
36789;SDS011;22740;52.182;8.780;2023-04-16T17:28:17;19.58;;;14.50;;
36789;SDS011;22740;52.182;8.780;2023-04-16T17:34:20;21.00;;;14.80;;
36789;SDS011;22740;52.182;8.780;2023-04-16T17:40:22;19.08;;;13.65;;
36789;SDS011;22740;52.182;8.780;2023-04-16T17:46:24;20.88;;;15.15;;
36789;SDS011;22740;52.182;8.780;2023-04-16T17:52:27;23.58;;;15.63;;
36789;SDS011;22740;52.182;8.780;2023-04-16T17:58:29;21.73;;;15.05;;
36789;SDS011;22740;52.182;8.780;2023-04-16T18:04:35;22.38;;;16.08;;
36789;SDS011;22740;52.182;8.780;2023-04-16T18:10:37;27.75;;;16.10;;
36789;SDS011;22740;52.182;8.780;2023-04-16T18:16:39;24.20;;;16.23;;
36789;SDS011;22740;52.182;8.780;2023-04-16T18:22:42;23.38;;;16.02;;
36789;SDS011;22740;52.182;8.780;2023-04-16T18:28:44;23.10;;;16.95;;
36789;SDS011;22740;52.182;8.780;2023-04-16T18:34:46;23.88;;;15.85;;
36789;SDS011;22740;52.182;8.780;2023-04-16T18:40:48;25.95;;;16.50;;
36789;SDS011;22740;52.182;8.780;2023-04-16T18:46:50;22.70;;;14.90;;
36789;SDS011;22740;52.182;8.780;2023-04-16T18:52:51;25.08;;;16.00;;
36789;SDS011;22740;52.182;8.780;2023-04-16T18:58:53;25.02;;;17.38;;
36789;SDS011;22740;52.182;8.780;2023-04-16T19:04:55;24.15;;;15.93;;
36789;SDS011;22740;52.182;8.780;2023-04-16T19:10:58;26.02;;;17.25;;
36789;SDS011;22740;52.182;8.780;2023-04-16T19:16:59;32.25;;;17.80;;
36789;SDS011;22740;52.182;8.780;2023-04-16T19:23:02;22.15;;;15.63;;
36789;SDS011;22740;52.182;8.780;2023-04-16T19:29:05;26.52;;;17.00;;
36789;SDS011;22740;52.182;8.780;2023-04-16T19:35:08;30.33;;;17.83;;
36789;SDS011;22740;52.182;8.780;2023-04-16T19:41:10;25.52;;;17.15;;
36789;SDS011;22740;52.182;8.780;2023-04-16T19:47:12;26.35;;;16.90;;
36789;SDS011;22740;52.182;8.780;2023-04-16T19:53:14;24.00;;;16.55;;
36789;SDS011;22740;52.182;8.780;2023-04-16T19:59:17;28.30;;;16.95;;
36789;SDS011;22740;52.182;8.780;2023-04-16T20:05:20;25.67;;;16.77;;
36789;SDS011;22740;52.182;8.780;2023-04-16T20:11:22;26.33;;;16.67;;
36789;SDS011;22740;52.182;8.780;2023-04-16T20:17:24;23.58;;;15.73;;
36789;SDS011;22740;52.182;8.780;2023-04-16T20:23:26;21.92;;;14.32;;
36789;SDS011;22740;52.182;8.780;2023-04-16T20:29:28;23.63;;;14.13;;
36789;SDS011;22740;52.182;8.780;2023-04-16T20:35:29;20.42;;;13.50;;
36789;SDS011;22740;52.182;8.780;2023-04-16T20:41:31;21.10;;;14.82;;
36789;SDS011;22740;52.182;8.780;2023-04-16T20:47:34;18.42;;;12.82;;
36789;SDS011;22740;52.182;8.780;2023-04-16T20:53:36;22.65;;;14.10;;
36789;SDS011;22740;52.182;8.780;2023-04-16T20:59:38;20.95;;;14.27;;
36789;SDS011;22740;52.182;8.780;2023-04-16T21:05:40;21.05;;;14.43;;
36789;SDS011;22740;52.182;8.780;2023-04-16T21:11:42;19.70;;;15.30;;
36789;SDS011;22740;52.182;8.780;2023-04-16T21:17:44;24.92;;;16.02;;
36789;SDS011;22740;52.182;8.780;2023-04-16T21:23:46;22.77;;;15.73;;
36789;SDS011;22740;52.182;8.780;2023-04-16T21:29:48;24.98;;;15.88;;
36789;SDS011;22740;52.182;8.780;2023-04-16T21:35:50;20.15;;;15.20;;
36789;SDS011;22740;52.182;8.780;2023-04-16T21:41:52;21.65;;;14.93;;
36789;SDS011;22740;52.182;8.780;2023-04-16T21:47:54;22.13;;;15.18;;
36789;SDS011;22740;52.182;8.780;2023-04-16T21:53:56;22.58;;;14.68;;
36789;SDS011;22740;52.182;8.780;2023-04-16T21:59:58;22.35;;;14.68;;
36789;SDS011;22740;52.182;8.780;2023-04-16T22:06:00;21.50;;;14.80;;
36789;SDS011;22740;52.182;8.780;2023-04-16T22:12:03;22.17;;;14.30;;
36789;SDS011;22740;52.182;8.780;2023-04-16T22:18:07;20.15;;;14.27;;
36789;SDS011;22740;52.182;8.780;2023-04-16T22:24:09;21.05;;;14.93;;
36789;SDS011;22740;52.182;8.780;2023-04-16T22:30:12;24.02;;;16.02;;
36789;SDS011;22740;52.182;8.780;2023-04-16T22:36:14;25.38;;;15.65;;
36789;SDS011;22740;52.182;8.780;2023-04-16T22:42:16;26.52;;;16.48;;
36789;SDS011;22740;52.182;8.780;2023-04-16T22:48:18;23.00;;;16.02;;
36789;SDS011;22740;52.182;8.780;2023-04-16T22:54:20;25.77;;;16.92;;
36789;SDS011;22740;52.182;8.780;2023-04-16T23:00:21;22.55;;;17.13;;
36789;SDS011;22740;52.182;8.780;2023-04-16T23:06:25;24.48;;;17.67;;
36789;SDS011;22740;52.182;8.780;2023-04-16T23:12:30;25.55;;;18.88;;
36789;SDS011;22740;52.182;8.780;2023-04-16T23:18:31;26.30;;;19.90;;
36789;SDS011;22740;52.182;8.780;2023-04-16T23:24:33;30.83;;;19.58;;
36789;SDS011;22740;52.182;8.780;2023-04-16T23:30:35;28.33;;;19.55;;
36789;SDS011;22740;52.182;8.780;2023-04-16T23:36:37;29.23;;;19.77;;
36789;SDS011;22740;52.182;8.780;2023-04-16T23:42:39;27.75;;;19.55;;
36789;SDS011;22740;52.182;8.780;2023-04-16T23:48:41;29.15;;;20.40;;
36789;SDS011;22740;52.182;8.780;2023-04-16T23:54:43;29.08;;;20.23;;
